Alpena, MI

1:08 AM EDT on July 07, 2015 (GMT -0400)
APRSWXNET | | Change Station
CLOSE
Current Station
Personal Weather Station
Location: Alpena, MI
Elevation: 593 ft
Nearby Weather Stations

Elev 593 ft 45.05 °N, 83.45 °W | Updated 24 minutes ago

Mostly Cloudy
Mostly Cloudy
75 °F
Feels Like 76 °F
N
1
Wind Variable Wind from South
Gusts 5.0 mph

Today
High -- | Low -- °F
--% Chance of Precip.
Yesterday
High -- | Low -- °F
Precip. -- in
5:54 AM 9:22 PM
Waning Gibbous, 68% visible
Pressure 29.77 in
Visibility 8.0 miles
Clouds Few 9500 ft
Scattered Clouds 12000 ft
Heat Index 76 °F
Dew Point 67 °F
Humidity 76%
Rainfall in
Snow Depth Not available.
UV 0 out of 12
Pollen 5.00 out of 12
Air Quality Not available.
Flu Activity Not available.
METAR KAPN 070454Z AUTO 19008KT 8SM FEW095 SCT120 24/18 A2978 RMK AO2 RAB40E52 SLP079 P0000 T02440183 403060150

More Conditions Fewer Conditions

Pressure 29.77 in
Visibility 8.0 miles
Clouds Few 9500 ft
Scattered Clouds 12000 ft
Heat Index 76 °F
Dew Point 67 °F
Humidity 76%
Rainfall in
Snow Depth Not available.
UV 0 out of 12
Pollen 5.00 out of 12
Air Quality Not available.
Flu Activity Not available.
METAR KAPN 070454Z AUTO 19008KT 8SM FEW095 SCT120 24/18 A2978 RMK AO2 RAB40E52 SLP079 P0000 T02440183 403060150

More Conditions Fewer Conditions

Nowcast | as of 1:00 am EDT on July 7, 2015

At 2 am...showers and slight chance of thunderstorms. Temperature 71. South winds 9 mph. At 4 am...showers and slight chance of thunderstorms. Temperature 69. Southwest winds 9 mph. At 6 am...showers. Temperature 66. West winds 9 mph. At 8 am...showers. Temperature 63. Northwest winds 11 mph.

×

10-Day Weather Forecast

×

Almanac

Astronomy

Jul. 07, 2015 Rise Set
Actual Time
Civil Twilight
Nautical Twilight
Astronomical Twilight
Moon
Length of Visible Light
Length of Day
Tomorrow will be .
, % of the Moon is Illuminated

Today's Extremes

State Highs State Lows

Community

WunderPhotos

Upload Photos

1,835,731 photos uploaded!

WunderBlogs® & News

Nearby

Air Quality

  Air Quality AQ Index Pollutant
Not available.

Snow Depth

Station Depth Elevation

Earthquake Activity

City Distance Mag. Time & Date
Minimum magnitude displayed is 2.5.

Coastal Water Temperatures

Place Temperature

Stations

Nearby Weather Stations

Station Location Temp. Windchill Dew Point Humidity Wind Precip. Elev Updated Type